Meteo Giornale » Osservazioni meteo Italia » Messina

ore: 08:55 - Osservazioni Meteo Messina
Lat. 38° 12' N Lon. 15° 33' E Alt. 59 metri s.l.m.

poco_nuvoloso Europe/Rome

16 °C

Poco Nuvoloso

Temp. 24 Ore

13 °C

19 °C

Nord/NOvest

13 Km/h

Dew point 10 °C

Umidità 67 %

Visibilità  10 Km

Il sole sorge alle ore 06:01

Il sole tramonta alle ore 18:09

Data e Ora Cielo e Fenomeni T °C DP °C Um. % Pres. hPa Vis. km Vento km/h
Oggi h: 08:55 poco_nuvoloso Poco Nuvoloso 16 10 67 1014 10 N/NO 13
Oggi h: 07:55 poco_nuvoloso Poco Nuvoloso 15 10 72 1014 10 NO 14.8
Oggi h: 06:55 poco_nuvoloso Poco Nuvoloso 13 10 81 1014 10 N/NO 14.8
Oggi h: 05:55 poco_nuvoloso Poco Nuvoloso 13 11 87 1014 10 N/NE 9.3
Oggi h: 04:55 poco_nuvoloso Poco Nuvoloso 14 12 87 1014 10 O 11.1
Oggi h: 03:55 poco_nuvoloso Poco Nuvoloso 14 12 87 1014 10 N/NE 9.3
Oggi h: 02:55 sereno Sereno 14 5 54 1014 10 N/NE 11.1
Oggi h: 01:55 sereno Sereno 14 5 54 1014 10 N/NE 7.4
Oggi h: 00:55 sereno Sereno 15 8 62 1015 10 N/NE 11.1
Ieri h: 23:55 sereno Sereno 15 7 58 1015 10 NE 9.3
Ieri h: 22:55 sereno Sereno 15 5 51 1015 10 N/NO 7.4
Ieri h: 21:55 sereno Sereno 14 5 54 1015 10 N 1.8
Ieri h: 20:55 sereno Sereno 14 7 62 1014 10 N 0
Ieri h: 19:55 sereno Sereno 15 7 58 1014 10 N 1.8
Ieri h: 18:55 sereno Sereno 16 6 51 1014 10 N 0
Ieri h: 16:55 sereno Sereno 19 -0 27 1014 10 E/NE 7.4
Ieri h: 15:55 sereno Sereno 19 5 39 1014 10 E/NE 9.3
Ieri h: 14:55 sereno Sereno 19 6 42 1014 10 NE 14.8
Ieri h: 13:55 sereno Sereno 18 10 59 1015 10 NE 18.5
Ieri h: 12:55 sereno Sereno 17 11 67 1016 10 NE 13
Ieri h: 11:55 sereno Sereno 17 11 67 1016 10 NE 20.3
Ieri h: 10:55 sereno Sereno 17 10 63 1016 10 NE 16.7
Ieri h: 08:55 sereno Sereno 15 12 82 1015 10 NE 14.8